createdAt,value
2023-10-20T00:00:16.769Z,98206.00
2023-10-20T00:03:19.618Z,98214.16
2023-10-20T00:06:22.103Z,98214.38
2023-10-20T00:09:26.135Z,98213.97
2023-10-20T00:12:29.426Z,98205.81
2023-10-20T00:15:31.838Z,98203.78
2023-10-20T00:18:34.461Z,98197.66
2023-10-20T00:21:36.879Z,98210.72
2023-10-20T00:24:38.705Z,98208.47
2023-10-20T00:27:46.556Z,98208.47
2023-10-20T00:30:48.420Z,98200.31
2023-10-20T00:33:51.518Z,98182.97
2023-10-20T00:36:53.413Z,98186.00
2023-10-20T00:39:55.496Z,98184.38
2023-10-20T00:42:58.717Z,98188.25
2023-10-20T00:46:00.698Z,98169.09
2023-10-20T00:49:04.012Z,98156.22
2023-10-20T00:52:07.836Z,98142.56
2023-10-20T00:55:12.792Z,98128.47
2023-10-20T00:58:16.100Z,98129.91
2023-10-20T01:01:18.436Z,98133.59
2023-10-20T01:04:20.731Z,98131.94
2023-10-20T01:07:22.524Z,98138.44
2023-10-20T01:10:25.635Z,98132.72
2023-10-20T01:13:28.837Z,98131.69
2023-10-20T01:16:30.700Z,98129.66
2023-10-20T01:19:33.616Z,98120.47
2023-10-20T01:22:35.683Z,98121.09
2023-10-20T01:25:39.708Z,98099.88
2023-10-20T01:28:41.617Z,98098.03
2023-10-20T01:31:43.431Z,98083.34
2023-10-20T01:34:45.589Z,98080.47
2023-10-20T01:37:47.461Z,98084.78
2023-10-20T01:40:51.618Z,98074.63
2023-10-20T01:43:53.491Z,98074.16
2023-10-20T01:46:55.897Z,98064.56
2023-10-20T01:49:58.323Z,98066.06
2023-10-20T01:53:00.211Z,98062.78
2023-10-20T01:56:03.783Z,98061.97
2023-10-20T01:59:05.748Z,98059.94
2023-10-20T02:02:07.716Z,98055.03
2023-10-20T02:05:10.702Z,98042.78
2023-10-20T02:08:13.493Z,98037.09
2023-10-20T02:11:17.677Z,98032.59
2023-10-20T02:14:19.659Z,98035.25
2023-10-20T02:17:22.226Z,98034.22
2023-10-20T02:20:26.415Z,98032.00
2023-10-20T02:23:31.133Z,98028.31
2023-10-20T02:26:34.531Z,98043.19
2023-10-20T02:29:36.598Z,98044.22
2023-10-20T02:32:39.325Z,98036.88
2023-10-20T02:35:41.382Z,98041.75
2023-10-20T02:38:44.271Z,98037.06
2023-10-20T02:41:47.657Z,98027.47
2023-10-20T02:44:50.237Z,98023.59
2023-10-20T02:47:52.220Z,98023.97
2023-10-20T02:50:55.164Z,98022.75
2023-10-20T02:53:57.060Z,98013.38
2023-10-20T02:57:00.309Z,98011.53
2023-10-20T03:00:05.319Z,98008.44
2023-10-20T03:03:07.377Z,98000.91
2023-10-20T03:06:10.114Z,98003.56
2023-10-20T03:09:14.739Z,98004.59
2023-10-20T03:12:18.466Z,98014.19
2023-10-20T03:15:20.951Z,98015.22
2023-10-20T03:18:23.013Z,98012.56
2023-10-20T03:21:25.125Z,98015.22
2023-10-20T03:24:26.954Z,98021.13
2023-10-20T03:27:30.985Z,98021.91
2023-10-20T03:30:37.958Z,98021.72
2023-10-20T03:33:39.984Z,98014.38
2023-10-20T03:36:41.843Z,98018.84
2023-10-20T03:39:44.842Z,98016.00
2023-10-20T03:42:49.694Z,98014.38
2023-10-20T03:45:53.412Z,98010.88
2023-10-20T03:48:55.946Z,98022.72
2023-10-20T03:51:57.935Z,98012.69
2023-10-20T03:55:01.592Z,98012.91
2023-10-20T03:58:05.402Z,98024.53
2023-10-20T04:01:09.172Z,98006.31
2023-10-20T04:04:13.076Z,97994.25
2023-10-20T04:07:16.280Z,97992.00
2023-10-20T04:10:21.961Z,97977.59
2023-10-20T04:13:25.494Z,97993.13
2023-10-20T04:16:30.257Z,97991.63
2023-10-20T04:19:33.974Z,97989.19
2023-10-20T04:22:39.477Z,97993.44
2023-10-20T04:25:45.821Z,97982.00
2023-10-20T04:28:52.371Z,97988.63
2023-10-20T04:32:13.491Z,97986.63
2023-10-20T04:35:34.460Z,97998.88
2023-10-20T04:38:54.940Z,97986.88
2023-10-20T04:41:57.775Z,98003.22
2023-10-20T04:45:19.742Z,97994.00
2023-10-20T04:48:31.068Z,97989.88
2023-10-20T04:51:52.522Z,97988.00
2023-10-20T04:55:00.001Z,97988.38
2023-10-20T04:58:19.381Z,97998.19
2023-10-20T05:01:42.185Z,97984.53
2023-10-20T05:04:47.611Z,97982.25
2023-10-20T05:07:51.928Z,97982.69
2023-10-20T05:10:55.421Z,97981.22
2023-10-20T05:13:57.623Z,97975.88
2023-10-20T05:17:00.972Z,97986.88
2023-10-20T05:20:06.483Z,97979.34
2023-10-20T05:23:09.114Z,97985.88
2023-10-20T05:26:11.736Z,97984.06
2023-10-20T05:29:15.604Z,97968.88
2023-10-20T05:32:19.113Z,97975.56
2023-10-20T05:35:21.440Z,97978.97
2023-10-20T05:38:23.755Z,97990.53
2023-10-20T05:41:25.769Z,97998.63
2023-10-20T05:44:31.680Z,97989.69
2023-10-20T05:47:35.015Z,98005.91
2023-10-20T05:50:37.420Z,98004.00
2023-10-20T05:53:39.735Z,97996.81
2023-10-20T05:56:41.735Z,97992.66
2023-10-20T05:59:44.333Z,97990.56
2023-10-20T06:02:47.982Z,97933.81
2023-10-20T06:05:50.760Z,97961.34
2023-10-20T06:08:52.678Z,97946.69
2023-10-20T06:11:57.914Z,97959.34
2023-10-20T06:14:59.816Z,97957.09
2023-10-20T06:18:05.676Z,97938.91
2023-10-20T06:21:11.742Z,97933.25
2023-10-20T06:24:15.517Z,97947.91
2023-10-20T06:27:17.335Z,97940.59
2023-10-20T06:30:24.858Z,97952.59
2023-10-20T06:33:38.505Z,98005.00
2023-10-20T06:36:48.156Z,98004.00
2023-10-20T06:39:50.729Z,97996.44
2023-10-20T06:42:52.672Z,97994.38
2023-10-20T06:45:57.882Z,97992.53
2023-10-20T06:49:01.168Z,98002.13
2023-10-20T06:52:05.130Z,98001.06
2023-10-20T06:55:42.654Z,97997.06
2023-10-20T06:58:31.585Z,97992.66
2023-10-20T07:01:34.454Z,97983.75
2023-10-20T07:04:38.637Z,97965.59
2023-10-20T07:07:41.669Z,97966.88
2023-10-20T07:10:44.627Z,97963.63
2023-10-20T07:13:46.535Z,97975.69
2023-10-20T07:16:48.548Z,97971.97
2023-10-20T07:19:51.893Z,97972.78
2023-10-20T07:22:54.482Z,97984.75
2023-10-20T07:25:56.368Z,97978.44
2023-10-20T07:28:58.265Z,97979.09
2023-10-20T07:32:00.152Z,97980.72
2023-10-20T07:35:04.450Z,97983.75
2023-10-20T07:38:06.714Z,97988.59
2023-10-20T07:41:11.199Z,97985.25
2023-10-20T07:44:13.942Z,97986.44
2023-10-20T07:47:15.914Z,97974.75
2023-10-20T07:50:20.624Z,97966.28
2023-10-20T07:53:22.665Z,97974.97
2023-10-20T07:56:26.385Z,97966.16
2023-10-20T07:59:30.165Z,97954.81
2023-10-20T08:02:32.646Z,97952.72
2023-10-20T08:05:37.152Z,97951.66
2023-10-20T08:08:39.390Z,97962.72
2023-10-20T08:11:43.295Z,97955.25
2023-10-20T08:14:45.388Z,97940.31
2023-10-20T08:17:47.532Z,97947.28
2023-10-20T08:20:51.796Z,97931.84
2023-10-20T08:23:53.803Z,97948.78
2023-10-20T08:26:56.368Z,97953.53
2023-10-20T08:29:59.155Z,97955.38
2023-10-20T08:33:01.321Z,97944.91
2023-10-20T08:36:16.269Z,97942.81
2023-10-20T08:39:21.843Z,97953.91
2023-10-20T08:42:23.476Z,97958.19
2023-10-20T08:45:28.082Z,97949.63
2023-10-20T08:48:30.031Z,97952.22
2023-10-20T08:51:34.652Z,97953.66
2023-10-20T08:54:36.558Z,97952.06
2023-10-20T08:57:39.124Z,97963.22
2023-10-20T09:00:47.552Z,97950.00
2023-10-20T09:04:02.228Z,97943.66
2023-10-20T09:07:15.408Z,97942.06
2023-10-20T09:10:17.536Z,97928.19
2023-10-20T09:13:19.355Z,97943.28
2023-10-20T09:16:21.312Z,97932.81
2023-10-20T09:19:24.163Z,97923.06
2023-10-20T09:22:30.772Z,97922.41
2023-10-20T09:25:33.209Z,97936.91
2023-10-20T09:28:37.052Z,97923.19
2023-10-20T09:31:40.106Z,97918.41
2023-10-20T09:34:42.222Z,97923.16
2023-10-20T09:37:52.300Z,97930.53
2023-10-20T09:41:09.755Z,97905.16
2023-10-20T09:44:21.517Z,97931.66
2023-10-20T09:47:28.339Z,97918.00
2023-10-20T09:50:33.069Z,97907.63
2023-10-20T09:53:37.050Z,97891.00
2023-10-20T09:56:40.364Z,97899.94
2023-10-20T09:59:43.333Z,97886.25
2023-10-20T10:02:46.136Z,97895.84
2023-10-20T10:05:48.208Z,97889.00
2023-10-20T10:08:54.377Z,97884.03
2023-10-20T10:11:56.558Z,97875.34
2023-10-20T10:15:00.513Z,97851.41
2023-10-20T10:18:10.389Z,97858.41
2023-10-20T10:21:24.451Z,97869.41
2023-10-20T10:24:27.798Z,97893.59
2023-10-20T10:27:31.373Z,97904.34
2023-10-20T10:30:33.500Z,97915.72
2023-10-20T10:33:36.421Z,97904.44
2023-10-20T10:36:51.164Z,97897.06
2023-10-20T10:39:55.474Z,97876.69
2023-10-20T10:42:58.504Z,97896.31
2023-10-20T10:46:00.353Z,97888.28
2023-10-20T10:49:07.248Z,97883.97
2023-10-20T10:52:09.097Z,97878.34
2023-10-20T10:55:14.725Z,97860.31
2023-10-20T10:58:16.866Z,97857.91
2023-10-20T11:01:18.869Z,97853.34
2023-10-20T11:04:21.334Z,97852.53
2023-10-20T11:07:23.850Z,97841.72
2023-10-20T11:10:28.668Z,97839.06
2023-10-20T11:13:30.973Z,97845.00
2023-10-20T11:16:35.133Z,97834.47
2023-10-20T11:19:38.703Z,97832.59
2023-10-20T11:22:40.978Z,97814.31
2023-10-20T11:25:46.462Z,97786.84
2023-10-20T11:28:48.359Z,97785.75
2023-10-20T11:31:50.257Z,97792.97
2023-10-20T11:34:52.986Z,97773.00
2023-10-20T11:37:55.717Z,97781.56
2023-10-20T11:41:00.321Z,97786.84
2023-10-20T11:44:02.146Z,97802.69
2023-10-20T11:47:04.884Z,97793.41
2023-10-20T11:50:09.956Z,97801.50
2023-10-20T11:53:13.842Z,97813.91
2023-10-20T11:56:18.184Z,97810.81
2023-10-20T11:59:20.088Z,97809.16
2023-10-20T12:02:24.310Z,97806.53
2023-10-20T12:05:27.115Z,97807.59
2023-10-20T12:08:30.767Z,97800.91
2023-10-20T12:11:34.778Z,97816.88
2023-10-20T12:14:37.038Z,97811.41
2023-10-20T12:17:42.437Z,97809.75
2023-10-20T12:20:44.828Z,97799.94
2023-10-20T12:23:46.998Z,97804.47
2023-10-20T12:26:51.245Z,97795.66
2023-10-20T12:29:53.249Z,97810.03
2023-10-20T12:32:55.873Z,97798.16
2023-10-20T12:35:58.713Z,97796.44
2023-10-20T12:39:01.578Z,97795.66
2023-10-20T12:42:06.162Z,97793.22
2023-10-20T12:45:10.522Z,97780.09
2023-10-20T12:48:12.644Z,97772.38
2023-10-20T12:51:14.862Z,97759.59
2023-10-20T12:54:16.794Z,97753.91
2023-10-20T12:57:20.132Z,97741.09
2023-10-20T13:00:22.311Z,97747.94
2023-10-20T13:03:25.577Z,97738.19
2023-10-20T13:06:27.593Z,97740.25
2023-10-20T13:09:29.688Z,97737.94
2023-10-20T13:12:33.151Z,97743.94
2023-10-20T13:15:35.029Z,97741.16
2023-10-20T13:18:37.642Z,97735.19
2023-10-20T13:21:39.520Z,97742.41
2023-10-20T13:24:41.771Z,97745.72
2023-10-20T13:27:45.059Z,97747.16
2023-10-20T13:31:07.582Z,97753.63
2023-10-20T13:34:09.891Z,97767.81
2023-10-20T13:37:11.868Z,97773.28
2023-10-20T13:40:14.664Z,97775.97
2023-10-20T13:43:17.949Z,97759.75
2023-10-20T13:46:19.895Z,97752.91
2023-10-20T13:49:22.625Z,97751.66
2023-10-20T13:52:24.664Z,97744.38
2023-10-20T13:55:27.040Z,97744.78
2023-10-20T13:58:30.300Z,97748.22
2023-10-20T14:01:32.599Z,97746.63
2023-10-20T14:04:34.775Z,97736.63
2023-10-20T14:07:37.848Z,97763.25
2023-10-20T14:10:39.785Z,97735.97
2023-10-20T14:13:43.198Z,97740.09
2023-10-20T14:16:45.144Z,97743.53
2023-10-20T14:19:47.545Z,97744.34
2023-10-20T14:22:49.362Z,97732.56
2023-10-20T14:25:57.246Z,97746.69
2023-10-20T14:29:00.576Z,97741.72
2023-10-20T14:32:02.566Z,97756.06
2023-10-20T14:35:07.693Z,97764.25
2023-10-20T14:38:09.583Z,97775.84
2023-10-20T14:41:11.636Z,97760.97
2023-10-20T14:44:14.949Z,97753.81
2023-10-20T14:47:17.423Z,97764.84
2023-10-20T14:50:19.320Z,97771.22
2023-10-20T14:53:22.024Z,97776.78
2023-10-20T14:56:23.934Z,97770.66
2023-10-20T14:59:27.891Z,97779.19
2023-10-20T15:02:29.813Z,97780.31
2023-10-20T15:05:32.428Z,97772.91
2023-10-20T15:08:34.741Z,97771.91
2023-10-20T15:11:37.500Z,97780.91
2023-10-20T15:14:40.797Z,97783.28
2023-10-20T15:17:42.810Z,97774.06
2023-10-20T15:20:46.017Z,97778.41
2023-10-20T15:23:48.104Z,97790.94
2023-10-20T15:26:51.495Z,97771.97
2023-10-20T15:29:54.972Z,97784.56
2023-10-20T15:32:57.097Z,97790.91
2023-10-20T15:35:59.365Z,97793.50
2023-10-20T15:39:01.308Z,97797.00
2023-10-20T15:42:04.375Z,97800.00
2023-10-20T15:45:11.504Z,97802.94
2023-10-20T15:48:14.435Z,97795.47
2023-10-20T15:51:18.796Z,97806.69
2023-10-20T15:54:21.202Z,97790.66
2023-10-20T15:57:23.444Z,97792.06
2023-10-20T16:00:26.671Z,97797.97
2023-10-20T16:03:29.668Z,97810.94
2023-10-20T16:06:31.761Z,97819.84
2023-10-20T16:09:33.975Z,97817.78
2023-10-20T16:12:36.289Z,97808.00
2023-10-20T16:15:39.675Z,97815.44
2023-10-20T16:18:41.785Z,97832.28
2023-10-20T16:21:44.450Z,97836.22
2023-10-20T16:24:47.401Z,97837.84
2023-10-20T16:27:50.380Z,97836.84
2023-10-20T16:30:53.807Z,97842.69
2023-10-20T16:33:56.194Z,97848.38
2023-10-20T16:36:58.421Z,97844.31
2023-10-20T16:40:03.449Z,97853.28
2023-10-20T16:43:08.483Z,97845.31
2023-10-20T16:46:15.451Z,97862.41
2023-10-20T16:49:17.484Z,97869.53
2023-10-20T16:52:19.879Z,97865.97
2023-10-20T16:55:22.277Z,97878.56
2023-10-20T16:58:28.025Z,97864.34
2023-10-20T17:01:33.213Z,97888.72
2023-10-20T17:04:36.056Z,97858.88
2023-10-20T17:07:38.928Z,97869.53
2023-10-20T17:10:41.931Z,97864.63
2023-10-20T17:13:44.263Z,97871.47
2023-10-20T17:16:48.375Z,97861.00
2023-10-20T17:19:50.306Z,97880.75
2023-10-20T17:22:52.910Z,97877.72
2023-10-20T17:25:55.926Z,97873.66
2023-10-20T17:28:58.753Z,97887.09
2023-10-20T17:32:02.946Z,97888.88
2023-10-20T17:35:07.510Z,97883.13
2023-10-20T17:38:11.312Z,97884.59
2023-10-20T17:41:14.192Z,97889.50
2023-10-20T17:44:17.688Z,97891.31
2023-10-20T17:47:21.851Z,97889.06
2023-10-20T17:50:24.621Z,97901.41
2023-10-20T17:53:28.326Z,97899.97
2023-10-20T17:56:31.188Z,97902.81
2023-10-20T17:59:34.449Z,97897.03
2023-10-20T18:02:38.439Z,97881.28
2023-10-20T18:05:41.415Z,97903.22
2023-10-20T18:08:45.924Z,97903.69
2023-10-20T18:11:50.727Z,97900.88
2023-10-20T18:14:53.910Z,97910.91
2023-10-20T18:17:58.208Z,97919.84
2023-10-20T18:21:02.721Z,97913.97
2023-10-20T18:24:10.997Z,97921.13
2023-10-20T18:27:14.049Z,97911.22
2023-10-20T18:30:16.639Z,97918.28
2023-10-20T18:33:22.028Z,97912.91
2023-10-20T18:36:25.494Z,97923.75
2023-10-20T18:39:29.888Z,97928.66
2023-10-20T18:42:32.927Z,97924.88
2023-10-20T18:45:36.809Z,97940.69
2023-10-20T18:48:42.023Z,97941.75
2023-10-20T18:51:45.407Z,97925.06
2023-10-20T18:54:48.961Z,97940.38
2023-10-20T18:57:51.989Z,97941.78
2023-10-20T19:00:58.788Z,97919.06
2023-10-20T19:04:08.749Z,97932.81
2023-10-20T19:07:13.522Z,97924.75
2023-10-20T19:10:18.895Z,97928.22
2023-10-20T19:13:22.694Z,97918.50
2023-10-20T19:16:26.664Z,97941.31
2023-10-20T19:19:32.768Z,97936.75
2023-10-20T19:22:36.461Z,97931.31
2023-10-20T19:25:41.960Z,97935.84
2023-10-20T19:28:45.152Z,97949.13
2023-10-20T19:31:47.938Z,97952.25
2023-10-20T19:34:52.196Z,97953.47
2023-10-20T19:37:54.366Z,97938.09
2023-10-20T19:40:58.116Z,97932.66
2023-10-20T19:44:00.352Z,97936.44
2023-10-20T19:47:04.013Z,97915.03
2023-10-20T19:50:09.572Z,97937.31
2023-10-20T19:53:13.203Z,97949.25
2023-10-20T19:56:15.475Z,97968.78
2023-10-20T19:59:19.603Z,97975.06
2023-10-20T20:02:21.889Z,97998.03
2023-10-20T20:05:29.199Z,98013.63
2023-10-20T20:08:34.655Z,98023.09
2023-10-20T20:11:37.887Z,98033.06
2023-10-20T20:14:40.837Z,98034.72
2023-10-20T20:17:43.321Z,98043.34
2023-10-20T20:20:47.390Z,98039.03
2023-10-20T20:23:50.668Z,98041.44
2023-10-20T20:26:54.631Z,98046.00
2023-10-20T20:29:57.086Z,98056.50
2023-10-20T20:32:59.826Z,98050.03
2023-10-20T20:36:03.877Z,98050.28
2023-10-20T20:39:06.798Z,98038.69
2023-10-20T20:42:08.730Z,98040.31
2023-10-20T20:45:11.843Z,98039.22
2023-10-20T20:48:13.781Z,98039.22
2023-10-20T20:51:18.063Z,98047.03
2023-10-20T20:54:19.911Z,98043.81
2023-10-20T20:57:21.790Z,98046.25
2023-10-20T21:00:24.594Z,98047.06
2023-10-20T21:03:26.603Z,98049.25
2023-10-20T21:06:29.889Z,98057.25
2023-10-20T21:09:32.849Z,98057.50
2023-10-20T21:12:34.741Z,98069.25
2023-10-20T21:15:37.968Z,98078.41
2023-10-20T21:18:40.984Z,98077.06
2023-10-20T21:21:44.312Z,98066.00
2023-10-20T21:24:46.219Z,98074.38
2023-10-20T21:27:48.440Z,98070.13
2023-10-20T21:30:50.338Z,98070.94
2023-10-20T21:33:52.429Z,98071.50
2023-10-20T21:36:56.515Z,98069.34
2023-10-20T21:39:58.453Z,98072.28
2023-10-20T21:43:00.441Z,98060.91
2023-10-20T21:46:02.456Z,98073.22
2023-10-20T21:49:04.597Z,98064.28
2023-10-20T21:52:07.856Z,98074.75
2023-10-20T21:55:10.577Z,98074.97
2023-10-20T21:58:12.435Z,98081.91
2023-10-20T22:01:14.792Z,98086.16
2023-10-20T22:04:16.789Z,98094.13
2023-10-20T22:07:20.742Z,98095.06
2023-10-20T22:10:22.723Z,98100.63
2023-10-20T22:13:24.710Z,98085.91
2023-10-20T22:16:26.569Z,98091.31
2023-10-20T22:19:28.771Z,98091.63
2023-10-20T22:22:32.651Z,98096.25
2023-10-20T22:25:35.433Z,98097.25
2023-10-20T22:28:37.332Z,98088.69
2023-10-20T22:31:39.400Z,98094.38
2023-10-20T22:34:41.286Z,98090.09
2023-10-20T22:37:44.661Z,98089.25
2023-10-20T22:40:46.759Z,98101.78
2023-10-20T22:43:48.587Z,98097.19
2023-10-20T22:46:51.747Z,98088.22
2023-10-20T22:49:53.739Z,98095.25
2023-10-20T22:52:57.677Z,98094.81
2023-10-20T22:55:59.502Z,98095.97
2023-10-20T22:59:01.382Z,98093.88
2023-10-20T23:02:03.631Z,98089.09
2023-10-20T23:05:07.831Z,98102.00
2023-10-20T23:08:11.604Z,98092.00
2023-10-20T23:11:14.101Z,98091.19
2023-10-20T23:14:16.392Z,98084.72
2023-10-20T23:17:19.289Z,98086.91
2023-10-20T23:20:21.170Z,98087.44
2023-10-20T23:23:24.706Z,98094.38
2023-10-20T23:26:26.631Z,98100.50
2023-10-20T23:29:28.754Z,98091.44
2023-10-20T23:32:31.348Z,98097.81
2023-10-20T23:35:33.341Z,98094.56
2023-10-20T23:38:37.651Z,98094.81
2023-10-20T23:41:39.675Z,98098.75
2023-10-20T23:44:41.594Z,98099.06
2023-10-20T23:47:44.244Z,98103.47
2023-10-20T23:50:47.192Z,98129.88
2023-10-20T23:53:50.714Z,98133.38
2023-10-20T23:56:52.576Z,98133.22
2023-10-20T23:59:54.525Z,98127.97
